Time;durP1;ratioP1;P1;durP2;ratioP2;P2;SDS_P1;SDS_P2;PMS_P1;PMS_P2;Temp;Humidity;BMP_temperature;BMP_pressure;BME280_temperature;BME280_humidity;BME280_pressure;Samples;Min_cycle;Max_cycle;Signal;HPM_P1;HPM_P2
2022/08/29 00:01:17;;;;;;;19.92;9.10;;;;;;;13.52;100.00;95738.63;5103641;28;20040;-74
2022/08/29 00:03:43;;;;;;;13.95;9.52;;;;;;;13.42;100.00;95733.44;5097710;28;20087;-75
2022/08/29 00:06:09;;;;;;;13.60;8.70;;;;;;;13.38;100.00;95732.44;5094747;28;20078;-75
2022/08/29 00:08:34;;;;;;;18.30;9.77;;;;;;;13.43;100.00;95732.38;5084960;28;20051;-75
2022/08/29 00:11:00;;;;;;;15.05;9.32;;;;;;;13.50;100.00;95724.88;5096013;28;20040;-75
2022/08/29 00:13:26;;;;;;;15.73;9.18;;;;;;;13.41;100.00;95726.59;5093904;28;20503;-75
2022/08/29 00:15:52;;;;;;;14.57;8.95;;;;;;;13.42;100.00;95738.72;5101577;27;20057;-75
2022/08/29 00:18:18;;;;;;;19.35;9.55;;;;;;;13.34;100.00;95732.97;5106832;28;20141;-75
2022/08/29 00:20:45;;;;;;;14.10;8.93;;;;;;;13.22;100.00;95740.50;5090680;28;20047;-75
2022/08/29 00:23:11;;;;;;;16.60;8.55;;;;;;;13.32;100.00;95740.38;5091425;28;20040;-75
2022/08/29 00:25:37;;;;;;;13.95;9.15;;;;;;;13.26;100.00;95736.22;5100543;28;20059;-75
2022/08/29 00:28:03;;;;;;;17.45;9.52;;;;;;;13.14;100.00;95738.44;5097872;28;20303;-75
2022/08/29 00:30:29;;;;;;;16.60;9.50;;;;;;;13.13;100.00;95737.69;5100687;28;20405;-75
2022/08/29 00:32:55;;;;;;;13.00;8.38;;;;;;;13.12;100.00;95735.31;5096727;28;20048;-76
2022/08/29 00:35:23;;;;;;;14.98;8.73;;;;;;;13.14;100.00;95743.75;5092895;28;20047;-76
2022/08/29 00:37:50;;;;;;;19.73;9.85;;;;;;;13.17;100.00;95740.53;5100188;28;20047;-76
2022/08/29 00:40:24;;;;;;;15.68;7.95;;;;;;;13.10;100.00;95742.72;5090716;28;20436;-75
2022/08/29 00:42:49;;;;;;;13.07;8.25;;;;;;;13.11;100.00;95741.66;5088519;28;20063;-76
2022/08/29 00:45:17;;;;;;;13.00;8.10;;;;;;;13.15;100.00;95740.03;5080845;28;20617;-75
2022/08/29 00:47:50;;;;;;;10.57;7.10;;;;;;;13.12;100.00;95735.31;5095071;28;20044;-76
2022/08/29 00:50:24;;;;;;;14.95;8.30;;;;;;;13.05;100.00;95735.63;5090743;28;20032;-76
2022/08/29 00:52:50;;;;;;;;;;;;;;;12.95;100.00;95736.50;5090382;28;20571;-75
2022/08/29 00:55:21;;;;;;;13.98;8.18;;;;;;;12.89;100.00;95727.06;5090670;28;19920;-75
2022/08/29 00:57:49;;;;;;;16.00;8.00;;;;;;;13.00;100.00;95733.84;5088433;28;20093;-75
2022/08/29 01:00:16;;;;;;;15.27;7.45;;;;;;;13.00;100.00;95739.13;5089668;28;20044;-76
2022/08/29 01:02:42;;;;;;;12.70;7.65;;;;;;;12.99;100.00;95737.53;5090866;28;20044;-75
2022/08/29 01:05:10;;;;;;;15.77;7.22;;;;;;;12.91;100.00;95735.50;5084560;28;20044;-75
2022/08/29 01:07:37;;;;;;;13.30;8.02;;;;;;;12.86;100.00;95725.00;5087728;28;20119;-75
2022/08/29 01:10:05;;;;;;;13.27;7.15;;;;;;;12.80;100.00;95734.00;5087272;28;20044;-75
2022/08/29 01:12:31;;;;;;;10.15;7.32;;;;;;;12.76;100.00;95728.50;5089030;28;20492;-74
2022/08/29 01:15:01;;;;;;;12.73;7.60;;;;;;;12.76;100.00;95735.66;5083727;28;20098;-75
2022/08/29 01:17:36;;;;;;;10.98;7.28;;;;;;;12.74;100.00;95735.13;5089075;28;20047;-74
2022/08/29 01:20:24;;;;;;;11.57;7.38;;;;;;;12.76;100.00;95739.06;5085123;28;20516;-75
2022/08/29 01:23:01;;;;;;;13.70;7.50;;;;;;;12.64;100.00;95735.97;5084313;28;20060;-75
2022/08/29 01:25:35;;;;;;;11.98;7.47;;;;;;;12.69;100.00;95732.53;5089714;28;20032;-75
2022/08/29 01:28:10;;;;;;;12.43;8.27;;;;;;;12.68;100.00;95730.94;5085482;28;20059;-75
2022/08/29 01:30:36;;;;;;;13.05;7.60;;;;;;;12.75;100.00;95726.13;5087871;28;20043;-75
2022/08/29 01:33:02;;;;;;;10.43;7.03;;;;;;;12.79;100.00;95729.81;5089892;28;20040;-75
2022/08/29 01:35:28;;;;;;;11.38;6.95;;;;;;;12.76;100.00;95725.09;5079390;28;20051;-75
2022/08/29 01:37:53;;;;;;;10.07;6.95;;;;;;;12.69;100.00;95732.53;5084483;28;20043;-75
2022/08/29 01:40:19;;;;;;;10.38;6.20;;;;;;;12.56;100.00;95734.75;5087910;28;20500;-75
2022/08/29 01:42:45;;;;;;;9.68;6.50;;;;;;;12.58;100.00;95727.31;5087575;28;20093;-75
2022/08/29 01:45:11;;;;;;;14.65;7.15;;;;;;;12.67;100.00;95729.38;5084135;28;20041;-76
2022/08/29 01:47:37;;;;;;;10.82;7.18;;;;;;;12.64;100.00;95731.50;5084182;28;20108;-75
2022/08/29 01:50:08;;;;;;;13.23;7.10;;;;;;;12.56;100.00;95721.53;5088545;28;20047;-75
2022/08/29 01:52:34;;;;;;;10.05;6.63;;;;;;;12.65;100.00;95721.72;5084118;28;20051;-75
2022/08/29 01:54:59;;;;;;;12.13;6.70;;;;;;;12.67;100.00;95719.63;5087256;28;20036;-75
2022/08/29 01:57:25;;;;;;;11.95;6.43;;;;;;;12.58;100.00;95722.03;5088151;28;20114;-76
2022/08/29 01:59:51;;;;;;;10.65;6.25;;;;;;;12.53;100.00;95719.44;5088122;28;20127;-76
2022/08/29 02:02:21;;;;;;;12.07;6.47;;;;;;;12.44;100.00;95715.81;5082650;28;20560;-75
2022/08/29 02:04:47;;;;;;;12.25;6.78;;;;;;;12.43;100.00;95724.81;5085404;28;20047;-75
2022/08/29 02:07:16;;;;;;;12.90;7.22;;;;;;;12.42;100.00;95723.22;5087937;28;20040;-75
2022/08/29 02:09:43;;;;;;;12.13;7.22;;;;;;;12.45;100.00;95718.19;5085795;28;20115;-75
2022/08/29 02:12:09;;;;;;;9.85;6.10;;;;;;;12.47;100.00;95715.28;5084605;28;20068;-75
2022/08/29 02:14:35;;;;;;;9.23;6.22;;;;;;;12.44;100.00;95721.09;5084476;28;20065;-75
2022/08/29 02:17:02;;;;;;;10.73;6.95;;;;;;;12.43;100.00;95719.53;5088689;28;20062;-75
2022/08/29 02:19:28;;;;;;;11.98;6.70;;;;;;;12.42;100.00;95723.22;5088309;28;20044;-75
2022/08/29 02:21:54;;;;;;;9.23;5.80;;;;;;;12.41;100.00;95721.66;5087731;28;20058;-75
2022/08/29 02:24:19;;;;;;;11.15;6.50;;;;;;;12.42;100.00;95724.00;5088762;28;20079;-75
2022/08/29 02:26:45;;;;;;;8.70;5.90;;;;;;;12.27;100.00;95719.63;5078340;28;20513;-75
2022/08/29 02:29:11;;;;;;;11.15;6.07;;;;;;;12.24;100.00;95722.81;5081680;28;20438;-75
2022/08/29 02:31:39;;;;;;;10.27;6.13;;;;;;;12.13;100.00;95716.03;5086522;28;20058;-75
2022/08/29 02:34:05;;;;;;;8.07;5.68;;;;;;;12.14;100.00;95717.63;5087482;28;20115;-75
2022/08/29 02:36:31;;;;;;;8.65;5.63;;;;;;;12.16;100.00;95720.75;5083348;28;20048;-75
2022/08/29 02:38:57;;;;;;;8.30;5.80;;;;;;;12.11;100.00;95718.16;5077361;28;20040;-75
2022/08/29 02:41:22;;;;;;;10.93;6.55;;;;;;;12.19;100.00;95708.88;5086264;28;20040;-75
2022/08/29 02:43:48;;;;;;;11.02;6.10;;;;;;;12.27;100.00;95711.72;5087930;28;20448;-76
2022/08/29 02:46:18;;;;;;;10.10;5.68;;;;;;;12.33;100.00;95709.06;5087155;28;20036;-75
2022/08/29 02:48:45;;;;;;;11.07;5.75;;;;;;;12.30;100.00;95705.88;5086850;28;20043;-74
2022/08/29 02:51:21;;;;;;;8.27;5.70;;;;;;;12.29;100.00;95708.81;5087061;28;20036;-75
2022/08/29 02:53:47;;;;;;;11.55;5.15;;;;;;;12.26;100.00;95717.28;5085642;28;20054;-75
2022/08/29 02:56:13;;;;;;;8.70;5.00;;;;;;;12.29;100.00;95720.13;5088647;28;20115;-74
2022/08/29 02:58:39;;;;;;;7.70;5.30;;;;;;;12.21;100.00;95720.75;5086555;28;20108;-75
2022/08/29 03:01:05;;;;;;;9.18;5.70;;;;;;;12.12;100.00;95719.72;5086131;28;20493;-75
2022/08/29 03:03:31;;;;;;;11.35;5.68;;;;;;;12.01;100.00;95712.94;5088405;28;20162;-75
2022/08/29 03:05:57;;;;;;;9.52;5.43;;;;;;;11.99;100.00;95712.44;5086314;28;20089;-75
2022/08/29 03:08:23;;;;;;;7.57;5.50;;;;;;;11.92;100.00;95721.41;5085347;28;20046;-75
2022/08/29 03:10:49;;;;;;;9.25;5.38;;;;;;;11.93;100.00;95712.44;5082526;28;20044;-75
2022/08/29 03:13:16;;;;;;;12.68;5.38;;;;;;;12.05;100.00;95714.78;5075303;28;20165;-75
2022/08/29 03:15:41;;;;;;;12.07;4.93;;;;;;;12.05;100.00;95713.97;5087536;28;20040;-75
2022/08/29 03:18:07;;;;;;;7.65;5.20;;;;;;;11.99;100.00;95720.34;5084419;28;20397;-75
2022/08/29 03:20:35;;;;;;;8.18;5.32;;;;;;;11.88;100.00;95730.13;5084961;28;20914;-76
2022/08/29 03:23:01;;;;;;;8.10;5.40;;;;;;;11.82;100.00;95736.50;5092007;28;20059;-76
2022/08/29 03:25:27;;;;;;;10.05;5.50;;;;;;;11.83;100.00;95733.56;5091536;28;20051;-75
2022/08/29 03:27:52;;;;;;;8.95;5.45;;;;;;;11.92;100.00;95726.69;5089127;28;20082;-75
2022/08/29 03:30:19;;;;;;;8.35;5.35;;;;;;;11.96;100.00;95733.00;5089569;28;20397;-76
2022/08/29 03:32:44;;;;;;;7.22;4.63;;;;;;;11.96;100.00;95738.28;5092766;28;20047;-75
2022/08/29 03:35:11;;;;;;;7.95;4.85;;;;;;;11.96;100.00;95729.59;5090791;28;20044;-75
2022/08/29 03:37:37;;;;;;;7.50;5.30;;;;;;;11.88;100.00;95730.94;5089321;28;20032;-75
2022/08/29 03:40:04;;;;;;;8.35;5.65;;;;;;;11.84;100.00;95734.34;5089827;28;20641;-75
2022/08/29 03:42:29;;;;;;;9.23;5.40;;;;;;;11.85;100.00;95728.84;5091567;28;20056;-75
2022/08/29 03:44:55;;;;;;;7.30;4.90;;;;;;;11.83;100.00;95723.03;5083306;28;20485;-75
2022/08/29 03:47:21;;;;;;;10.73;4.90;;;;;;;11.77;100.00;95724.13;5091623;28;20176;-76
2022/08/29 03:49:46;;;;;;;6.65;4.70;;;;;;;11.89;100.00;95721.16;5090642;28;20494;-76
2022/08/29 03:52:11;;;;;;;9.43;4.75;;;;;;;11.92;100.00;95721.41;5080291;28;20054;-76
2022/08/29 03:54:37;;;;;;;8.98;4.90;;;;;;;11.86;100.00;95727.75;5087134;28;20115;-76
2022/08/29 03:57:04;;;;;;;13.10;5.00;;;;;;;11.66;100.00;95738.41;5092248;28;20413;-76
2022/08/29 03:59:31;;;;;;;6.55;4.50;;;;;;;11.73;100.00;95734.41;5088781;28;20619;-76
2022/08/29 04:01:57;;;;;;;9.77;4.93;;;;;;;11.67;100.00;95734.72;5090371;28;20048;-76
2022/08/29 04:07:08;;;;;;;6.53;4.63;;;;;;;11.67;100.00;95734.72;5084559;28;20036;-75
2022/08/29 04:09:35;;;;;;;7.47;4.68;;;;;;;11.64;100.00;95740.50;5088528;28;20723;-75
2022/08/29 04:12:01;;;;;;;8.63;5.10;;;;;;;11.67;100.00;95746.03;5085144;28;20059;-75
2022/08/29 04:14:28;;;;;;;8.65;4.90;;;;;;;11.59;100.00;95744.75;5084854;28;20111;-75
2022/08/29 04:16:54;;;;;;;9.23;4.93;;;;;;;11.54;100.00;95747.41;5090247;28;20051;-75
2022/08/29 04:19:20;;;;;;;8.52;5.03;;;;;;;11.63;100.00;95746.84;5089009;28;20048;-75
2022/08/29 04:21:47;;;;;;;7.85;4.38;;;;;;;11.64;100.00;95740.50;5091759;28;20071;-75
2022/08/29 04:24:14;;;;;;;7.20;4.60;;;;;;;11.67;100.00;95746.03;5091260;28;20110;-75
2022/08/29 04:26:39;;;;;;;9.15;4.47;;;;;;;11.59;100.00;95750.03;5091565;28;20059;-76
2022/08/29 04:29:08;;;;;;;7.60;4.40;;;;;;;11.69;100.00;95753.69;5080810;28;20032;-75
2022/08/29 04:31:35;;;;;;;7.93;4.18;;;;;;;11.71;100.00;95756.81;5091071;28;20040;-76
2022/08/29 04:34:01;;;;;;;7.95;4.50;;;;;;;11.65;100.00;95747.38;5086932;28;20048;-76
2022/08/29 04:36:27;;;;;;;8.50;4.38;;;;;;;11.71;100.00;95756.81;5084737;28;20483;-75
2022/08/29 04:38:53;;;;;;;8.30;4.35;;;;;;;11.74;100.00;95756.31;5089073;28;20123;-75
2022/08/29 04:41:20;;;;;;;8.48;4.65;;;;;;;11.66;100.00;95760.28;5087770;28;20405;-75
2022/08/29 04:43:45;;;;;;;10.75;5.03;;;;;;;11.55;100.00;95764.81;5085933;28;20036;-76
2022/08/29 04:46:13;;;;;;;7.22;4.40;;;;;;;11.54;100.00;95763.22;5090148;28;20046;-76
2022/08/29 04:48:38;;;;;;;8.40;5.10;;;;;;;11.67;100.00;95767.13;5090574;28;20090;-76
2022/08/29 04:51:04;;;;;;;6.40;4.35;;;;;;;11.78;100.00;95767.91;5088945;28;20063;-76
2022/08/29 04:53:30;;;;;;;8.65;4.78;;;;;;;11.74;100.00;95766.84;5086175;28;20485;-76
2022/08/29 04:56:02;;;;;;;6.63;4.47;;;;;;;11.72;100.00;95768.94;5089221;28;20509;-76
2022/08/29 04:58:29;;;;;;;7.70;4.78;;;;;;;11.68;100.00;95773.19;5088760;28;20032;-75
2022/08/29 05:00:55;;;;;;;10.32;5.30;;;;;;;11.78;100.00;95779.22;5089795;28;20570;-76
2022/08/29 05:03:22;;;;;;;7.82;4.85;;;;;;;11.83;100.00;95777.63;5090406;28;20044;-76
2022/08/29 05:05:59;;;;;;;9.45;5.05;;;;;;;11.78;100.00;95783.72;5089242;28;20052;-76
2022/08/29 05:08:25;;;;;;;6.88;4.40;;;;;;;11.85;100.00;95783.41;5085966;28;20048;-76
2022/08/29 05:10:51;;;;;;;7.65;4.95;;;;;;;11.87;100.00;95776.81;5081892;28;20041;-75
2022/08/29 05:13:17;;;;;;;9.07;4.65;;;;;;;11.96;100.00;95783.13;5075141;28;20051;-76
2022/08/29 05:15:44;;;;;;;7.63;4.45;;;;;;;12.00;100.00;95775.47;5091020;28;20115;-76
2022/08/29 05:18:11;;;;;;;10.80;5.00;;;;;;;12.05;100.00;95782.56;5090367;28;20093;-76
2022/08/29 05:20:41;;;;;;;8.95;5.45;;;;;;;11.99;100.00;95778.38;5088188;28;20051;-75
2022/08/29 05:23:07;;;;;;;9.80;6.00;;;;;;;12.07;100.00;95775.94;5084740;28;20040;-75
2022/08/29 05:25:33;;;;;;;10.88;5.25;;;;;;;12.11;100.00;95778.81;5087451;28;20046;-75
2022/08/29 05:27:59;;;;;;;10.65;5.40;;;;;;;12.14;100.00;95780.94;5090056;28;20040;-76
2022/08/29 05:30:27;;;;;;;8.23;5.20;;;;;;;12.22;100.00;95777.72;5077341;28;20036;-76
2022/08/29 05:32:53;;;;;;;9.23;5.45;;;;;;;12.23;100.00;95784.56;5076362;28;20047;-76
2022/08/29 05:35:19;;;;;;;11.00;5.97;;;;;;;12.29;100.00;95787.97;5083194;28;20046;-75
2022/08/29 05:37:45;;;;;;;10.88;6.00;;;;;;;12.25;100.00;95777.16;5085228;28;20044;-76
2022/08/29 05:40:10;;;;;;;10.48;5.32;;;;;;;12.28;100.00;95784.56;5088427;28;20036;-75
2022/08/29 05:42:36;;;;;;;8.57;5.38;;;;;;;12.30;100.00;95779.78;5086790;28;20039;-76
2022/08/29 05:45:03;;;;;;;9.48;6.10;;;;;;;12.43;100.00;95767.03;5089974;28;20039;-76
2022/08/29 05:47:30;;;;;;;16.95;6.25;;;;;;;12.52;100.00;95770.66;5089416;28;20040;-76
2022/08/29 05:49:56;;;;;;;12.60;7.00;;;;;;;12.65;100.00;95780.59;5087363;28;20051;-76
2022/08/29 05:52:22;;;;;;;9.43;6.05;;;;;;;12.63;100.00;95776.66;5089633;28;20108;-75
2022/08/29 05:54:47;;;;;;;11.57;5.47;;;;;;;12.62;100.00;95781.16;5087992;28;20814;-75
2022/08/29 05:57:18;;;;;;;11.30;6.03;;;;;;;12.61;100.00;95776.94;5080088;28;20538;-76
2022/08/29 05:59:44;;;;;;;9.40;6.00;;;;;;;12.77;100.00;95790.00;5085654;28;20486;-76
2022/08/29 06:02:11;;;;;;;16.35;5.97;;;;;;;12.78;100.00;95794.25;5085203;28;20047;-76
2022/08/29 06:04:37;;;;;;;10.50;6.03;;;;;;;12.84;100.00;95790.50;5085917;28;20040;-76
2022/08/29 06:07:04;;;;;;;9.88;6.18;;;;;;;12.93;100.00;95791.50;5088323;28;20044;-76
2022/08/29 06:09:30;;;;;;;9.52;6.30;;;;;;;13.07;100.00;95790.84;5086346;28;20052;-76
2022/08/29 06:11:59;;;;;;;11.30;5.97;;;;;;;13.20;100.00;95784.88;5087514;28;20378;-75
2022/08/29 06:14:25;;;;;;;9.85;5.85;;;;;;;13.17;100.00;95796.03;5088822;28;20042;-76
2022/08/29 06:16:52;;;;;;;13.55;5.97;;;;;;;13.20;100.00;95795.47;5088503;28;20032;-75
2022/08/29 06:19:18;;;;;;;10.73;5.65;;;;;;;13.40;100.00;95793.72;5086830;28;20042;-75
2022/08/29 06:21:44;;;;;;;12.52;5.70;;;;;;;13.43;100.00;95793.16;5080427;28;20044;-76
2022/08/29 06:24:10;;;;;;;12.27;5.80;;;;;;;13.55;100.00;95782.19;5086603;28;20067;-75
2022/08/29 06:26:36;;;;;;;9.93;6.00;;;;;;;13.55;100.00;95790.13;5084625;28;20090;-76
2022/08/29 06:29:07;;;;;;;8.63;5.50;;;;;;;13.50;100.00;95788.34;5087668;28;20036;-75
2022/08/29 06:31:33;;;;;;;8.45;5.57;;;;;;;13.51;100.00;95784.63;5085870;28;20044;-75
2022/08/29 06:34:03;;;;;;;11.85;5.53;;;;;;;13.51;100.00;95784.63;5088454;28;20044;-76
2022/08/29 06:36:30;;;;;;;10.20;5.30;;;;;;;13.57;100.00;95788.78;5085199;28;20048;-76
2022/08/29 06:38:57;;;;;;;10.98;5.85;;;;;;;13.54;100.00;95785.94;5086954;28;20043;-76
2022/08/29 06:41:23;;;;;;;11.13;5.55;;;;;;;13.56;100.00;95787.22;5086612;28;20043;-78
2022/08/29 06:43:50;;;;;;;8.00;5.13;;;;;;;13.61;100.00;95797.75;5088031;28;20047;-76
2022/08/29 06:46:24;;;;;;;11.25;5.43;;;;;;;13.64;100.00;95789.22;5088436;28;20091;-76
2022/08/29 06:48:50;;;;;;;11.35;6.00;;;;;;;13.71;100.00;95798.72;5084397;28;20053;-76
2022/08/29 06:51:16;;;;;;;10.30;6.20;;;;;;;13.79;100.00;95795.41;5085448;28;20044;-77
2022/08/29 06:53:42;;;;;;;15.80;6.10;;;;;;;13.90;100.00;95802.16;5088654;28;20044;-77
2022/08/29 06:56:08;;;;;;;11.50;6.72;;;;;;;13.95;100.00;95799.47;5077632;28;20044;-78
2022/08/29 06:58:34;;;;;;;12.55;6.32;;;;;;;13.99;100.00;95805.78;5085718;28;20823;-76
2022/08/29 07:01:26;;;;;;;13.98;6.70;;;;;;;14.35;100.00;95807.97;5083544;28;20446;-77
2022/08/29 07:03:53;;;;;;;11.63;6.90;;;;;;;14.49;100.00;95812.53;5080596;28;20126;-77
2022/08/29 07:06:19;;;;;;;11.82;6.65;;;;;;;14.61;100.00;95815.56;5084464;28;20044;-77
2022/08/29 07:08:44;;;;;;;11.95;7.32;;;;;;;14.70;100.00;95813.84;5082372;28;20469;-76
2022/08/29 07:11:10;;;;;;;15.38;6.75;;;;;;;14.91;100.00;95813.53;5084333;28;20106;-75
2022/08/29 07:13:38;;;;;;;15.55;7.22;;;;;;;14.89;100.00;95821.75;5085386;28;20043;-76
2022/08/29 07:16:09;;;;;;;11.07;7.18;;;;;;;14.82;100.00;95820.56;5082899;28;20063;-77
2022/08/29 07:18:35;;;;;;;9.75;6.55;;;;;;;14.80;100.00;95812.13;5084750;28;20055;-76
2022/08/29 07:21:06;;;;;;;10.77;6.68;;;;;;;14.82;100.00;95809.97;5086176;28;20039;-77
2022/08/29 07:23:31;;;;;;;16.98;8.15;;;;;;;14.83;100.00;95811.56;5088376;28;20501;-76
2022/08/29 07:26:19;;;;;;;11.98;7.55;;;;;;;14.97;100.00;95812.38;5088314;28;20070;-77
2022/08/29 07:28:50;;;;;;;12.52;7.55;;;;;;;15.15;100.00;95815.28;5086076;28;20072;-77
2022/08/29 07:31:16;;;;;;;13.23;7.25;;;;;;;15.16;100.00;95814.22;5076672;28;20032;-77
2022/08/29 07:33:41;;;;;;;13.00;8.30;;;;;;;15.18;100.00;95812.03;5086348;28;20043;-77
2022/08/29 07:36:07;;;;;;;12.13;8.23;;;;;;;15.63;100.00;95816.81;5087369;28;20044;-77
2022/08/29 07:38:33;;;;;;;12.25;7.72;;;;;;;15.86;100.00;95815.88;5078854;28;20082;-77
2022/08/29 07:41:05;;;;;;;13.43;6.78;;;;;;;15.71;100.00;95819.56;5086324;28;20044;-75
2022/08/29 07:43:31;;;;;;;12.20;7.40;;;;;;;15.73;100.00;95816.63;5085024;28;20074;-76
2022/08/29 07:45:56;;;;;;;10.63;6.80;;;;;;;15.76;100.00;95821.38;5087471;28;20040;-75
2022/08/29 07:48:24;;;;;;;12.68;7.68;;;;;;;15.92;100.00;95824.53;5088120;28;20059;-76
2022/08/29 07:50:50;;;;;;;14.88;8.65;;;;;;;15.84;100.00;95828.66;5085768;28;20571;-75
2022/08/29 07:53:16;;;;;;;11.77;7.95;;;;;;;15.86;100.00;95831.00;5084891;28;20044;-76
2022/08/29 07:55:42;;;;;;;10.40;6.75;;;;;;;16.28;100.00;95827.25;5086279;28;20036;-78
2022/08/29 07:58:08;;;;;;;10.07;6.70;;;;;;;16.56;100.00;95837.03;5086836;28;20038;-76
2022/08/29 08:00:34;;;;;;;10.23;6.70;;;;;;;16.62;100.00;95835.81;5087187;28;20039;-76
2022/08/29 08:03:00;;;;;;;9.77;5.82;;;;;;;16.48;100.00;95830.56;5083984;28;20049;-77
2022/08/29 08:05:26;;;;;;;8.30;5.40;;;;;;;16.59;100.00;95841.75;5088198;28;20067;-77
2022/08/29 08:07:51;;;;;;;12.15;6.13;;;;;;;16.78;100.00;95842.38;5090897;28;20051;-78
2022/08/29 08:10:18;;;;;;;10.50;6.45;;;;;;;16.47;100.00;95844.16;5084060;28;20040;-78
2022/08/29 08:12:45;;;;;;;10.32;7.05;;;;;;;16.42;100.00;95843.16;5088408;28;20510;-76
2022/08/29 08:15:12;;;;;;;11.35;7.20;;;;;;;16.38;100.00;95847.50;5091461;28;20036;-77
2022/08/29 08:17:38;;;;;;;11.30;7.72;;;;;;;16.40;100.00;95847.97;5091474;28;20550;-76
2022/08/29 08:20:07;;;;;;;15.82;8.38;;;;;;;17.00;100.00;95846.16;5086084;28;20048;-78
2022/08/29 08:22:33;;;;;;;13.18;8.23;;;;;;;16.93;100.00;95845.81;5088984;28;20058;-77
2022/08/29 08:24:59;;;;;;;17.73;9.48;;;;;;;16.73;100.00;95842.47;5083020;28;20659;-76
2022/08/29 08:27:24;;;;;;;15.18;9.10;;;;;;;16.65;100.00;95845.88;5081215;28;20040;-77
2022/08/29 08:29:50;;;;;;;14.75;8.90;;;;;;;16.91;100.00;95850.63;5089746;28;20040;-78
2022/08/29 08:32:15;;;;;;;16.02;8.50;;;;;;;17.66;100.00;95845.63;5088732;28;20489;-75
2022/08/29 08:34:41;;;;;;;15.20;8.40;;;;;;;17.95;100.00;95841.69;5090528;28;20477;-76
2022/08/29 08:37:08;;;;;;;12.48;8.55;;;;;;;18.02;100.00;95851.91;5086411;28;20535;-75
2022/08/29 08:39:35;;;;;;;15.45;8.27;;;;;;;18.21;100.00;95849.75;5088024;28;20428;-77
2022/08/29 08:42:21;;;;;;;15.52;8.63;;;;;;;17.92;100.00;95842.31;5088334;28;20051;-78
2022/08/29 08:45:01;;;;;;;16.02;7.68;;;;;;;17.87;100.00;95842.41;5089448;28;20109;-78
2022/08/29 08:47:32;;;;;;;12.02;7.88;;;;;;;18.48;100.00;95838.03;5085752;28;20048;-77
2022/08/29 08:50:01;;;;;;;11.88;7.65;;;;;;;18.78;100.00;95846.22;5086282;28;20037;-76
2022/08/29 08:52:51;;;;;;;13.85;8.82;;;;;;;18.82;100.00;95844.50;5085118;28;20067;-76
2022/08/29 08:55:32;;;;;;;12.63;8.18;;;;;;;18.77;100.00;95849.97;5087349;28;20064;-76
2022/08/29 08:58:16;;;;;;;13.48;8.40;;;;;;;18.57;100.00;95842.59;5087694;28;20505;-76
2022/08/29 09:01:03;;;;;;;13.25;8.20;;;;;;;18.58;100.00;95841.50;5082266;28;20490;-76
2022/08/29 09:04:02;;;;;;;14.32;9.40;;;;;;;18.47;100.00;95844.47;5088199;28;20157;-76
2022/08/29 09:06:28;;;;;;;14.10;8.55;;;;;;;18.30;100.00;95839.09;5090367;28;20036;-76
2022/08/29 09:09:09;;;;;;;14.05;8.85;;;;;;;18.16;100.00;95842.69;5087771;28;20083;-77
2022/08/29 09:12:07;;;;;;;15.98;8.88;;;;;;;18.18;100.00;95840.50;5088134;28;20044;-77
2022/08/29 09:15:06;;;;;;;16.00;8.95;;;;;;;18.28;100.00;95838.66;5088306;28;20036;-78
2022/08/29 09:17:41;;;;;;;14.52;9.05;;;;;;;18.42;100.00;95844.63;5078170;28;20113;-80
2022/08/29 09:20:12;;;;;;;14.98;9.20;;;;;;;18.55;100.00;95845.59;5091576;28;20047;-79
2022/08/29 09:22:40;;;;;;;12.75;8.57;;;;;;;18.96;100.00;95851.56;5081705;28;20401;-80
2022/08/29 09:25:08;;;;;;;11.75;7.85;;;;;;;19.26;100.00;95843.69;5089918;28;20044;-77
2022/08/29 09:27:35;;;;;;;13.85;7.40;;;;;;;19.50;100.00;95838.63;5089975;28;20508;-77
2022/08/29 09:30:16;;;;;;;11.68;7.90;;;;;;;19.81;100.00;95842.97;5085255;28;20564;-76
2022/08/29 09:33:06;;;;;;;12.90;7.82;;;;;;;19.56;100.00;95840.00;5080221;28;20044;-76
2022/08/29 09:35:40;;;;;;;12.15;8.63;;;;;;;19.18;100.00;95838.06;5090290;28;20120;-80
2022/08/29 09:38:17;;;;;;;11.90;7.03;;;;;;;18.95;100.00;95848.13;5090141;28;20040;-76
2022/08/29 09:40:51;;;;;;;13.50;7.93;;;;;;;18.94;100.00;95845.78;5089336;28;20040;-80
2022/08/29 09:43:22;;;;;;;;;;;;;;;19.35;100.00;95841.78;5088948;28;20044;-78
2022/08/29 09:46:06;;;;;;;11.73;7.60;;;;;;;19.76;100.00;95845.00;5087822;28;20408;-76
2022/08/29 09:48:33;;;;;;;11.13;7.20;;;;;;;19.88;100.00;95840.56;5087219;28;20043;-76
2022/08/29 09:51:20;;;;;;;11.23;7.65;;;;;;;19.99;100.00;95837.53;5087871;28;20044;-78
2022/08/29 09:53:47;;;;;;;14.85;7.63;;;;;;;19.95;100.00;95833.94;5086823;28;20122;-79
2022/08/29 09:56:25;;;;;;;12.18;8.25;;;;;;;19.76;100.00;95835.09;5092573;28;20085;-75
2022/08/29 09:59:20;;;;;;;9.15;6.60;;;;;;;20.32;100.00;95839.56;5089665;28;20095;-75
2022/08/29 10:01:46;;;;;;;12.75;7.35;;;;;;;20.20;100.00;95843.72;5089310;28;20406;-75
2022/08/29 10:04:11;;;;;;;11.30;7.80;;;;;;;20.30;100.00;95831.88;5090002;28;20048;-76
2022/08/29 10:06:39;;;;;;;12.25;6.85;;;;;;;20.66;100.00;95837.75;5090564;28;20675;-77
2022/08/29 10:09:12;;;;;;;10.32;7.20;;;;;;;20.70;100.00;95833.34;5086188;28;20044;-77
2022/08/29 10:11:45;;;;;;;10.25;7.10;;;;;;;20.62;100.00;95831.50;5078305;28;20518;-75
2022/08/29 10:14:37;;;;;;;9.85;6.82;;;;;;;20.66;100.00;95837.75;5084919;28;20505;-75
2022/08/29 10:19:54;;;;;;;11.30;6.88;;;;;;;22.12;100.00;95825.13;5088585;28;20049;-77
2022/08/29 10:22:39;;;;;;;12.32;6.57;;;;;;;22.27;100.00;95826.34;5087548;28;20051;-76
2022/08/29 10:25:05;;;;;;;8.98;6.63;;;;;;;22.50;100.00;95823.22;5088192;28;20047;-76
2022/08/29 10:28:08;;;;;;;11.73;6.45;;;;;;;23.27;100.00;95827.63;5089037;28;20047;-76
2022/08/29 10:31:04;;;;;;;9.00;6.68;;;;;;;23.99;100.00;95823.28;5081323;28;20040;-76
2022/08/29 10:33:59;;;;;;;14.70;6.28;;;;;;;23.44;100.00;95836.53;5086881;28;20348;-76
2022/08/29 10:36:36;;;;;;;11.15;5.88;;;;;;;24.56;100.00;95826.47;5083333;28;20405;-79
2022/08/29 10:39:12;;;;;;;8.73;6.43;;;;;;;23.84;100.00;95832.91;5086102;28;20388;-78
2022/08/29 10:41:52;;;;;;;9.18;6.32;;;;;;;23.16;100.00;95831.97;5088379;28;20088;-79
2022/08/29 10:44:58;;;;;;;8.77;5.63;;;;;;;24.57;95.30;95830.75;5086421;28;20036;-77
2022/08/29 10:47:44;;;;;;;8.88;6.10;;;;;;;24.42;100.00;95834.25;5088282;28;20040;-77
2022/08/29 10:50:28;;;;;;;10.15;5.75;;;;;;;24.45;94.19;95830.84;5088123;28;20141;-77
2022/08/29 10:53:10;;;;;;;12.27;6.20;;;;;;;24.53;95.17;95829.88;5082336;28;20051;-75
2022/08/29 10:55:57;;;;;;;8.88;5.65;;;;;;;24.81;87.04;95828.94;5085397;28;20044;-76
2022/08/29 10:58:32;;;;;;;10.38;5.68;;;;;;;24.65;86.21;95827.09;5077725;28;20036;-76
2022/08/29 11:01:21;;;;;;;8.30;5.80;;;;;;;23.86;95.10;95822.56;5088692;28;20043;-77
2022/08/29 11:04:01;;;;;;;8.65;5.70;;;;;;;24.26;88.60;95826.97;5088842;28;20040;-76
2022/08/29 11:07:02;;;;;;;9.15;6.40;;;;;;;25.75;87.56;95826.06;5083751;28;20461;-76
2022/08/29 11:10:08;;;;;;;10.10;5.60;;;;;;;24.72;76.14;95821.06;5070536;28;20787;-77
2022/08/29 11:12:55;;;;;;;9.98;5.75;;;;;;;23.35;96.39;95828.63;5072727;28;20123;-77
2022/08/29 11:15:39;;;;;;;11.13;6.15;;;;;;;24.06;87.99;95822.69;5087106;28;20040;-75
2022/08/29 11:18:27;;;;;;;8.57;5.85;;;;;;;23.73;92.25;95818.44;5081010;28;20032;-76
2022/08/29 11:20:58;;;;;;;10.00;6.05;;;;;;;22.98;90.29;95816.13;5085004;28;20051;-76
2022/08/29 11:23:38;;;;;;;9.38;5.70;;;;;;;24.41;100.00;95817.34;5086131;28;20476;-76
2022/08/29 11:26:21;;;;;;;25.77;6.20;;;;;;;24.25;95.30;95814.69;5085745;28;20052;-76
2022/08/29 11:29:00;;;;;;;8.18;5.95;;;;;;;22.71;97.29;95816.88;5087588;28;20051;-79
2022/08/29 11:31:35;;;;;;;8.32;6.03;;;;;;;23.23;95.97;95816.06;5082724;28;20044;-77
2022/08/29 11:34:16;;;;;;;10.10;6.20;;;;;;;24.53;94.91;95819.13;5087866;28;20064;-77
2022/08/29 11:36:57;;;;;;;12.50;6.90;;;;;;;25.33;91.98;95816.88;5084599;28;20111;-79
2022/08/29 11:39:41;;;;;;;8.13;5.72;;;;;;;25.41;97.96;95817.78;5089254;28;20036;-76
2022/08/29 11:42:08;;;;;;;;;;;;;;;25.14;81.67;95814.97;5089253;28;20533;-76